Terminal Aerodrome Forecast
Issued by NWS La Crosse, WI

Home | Current Version | Previous Version | Text Only | Print | Product List | Glossary On
Versions: 1 2 3 4 5 6 7 8 9 10 11 12 13 14 15 16 17 18 19 20 21
000
FTUS43 KARX 230903 AAA
TAFLSE
TAF AMD
KLSE 230903Z 2309/2406 VRB03KT P6SM BCFG OVC005
      TEMPO 2310/2314 1/4SM FG OVC001
     FM231500 14006KT P6SM BKN015
     FM231600 16010KT P6SM SCT030
     FM231800 16011G17KT P6SM VCTS SCT035 BKN150CB
     FM232200 18011G18KT P6SM SCT040
     FM240500 18011KT 6SM TSRA BR BKN070CB=

USA.gov is the U.S. government's official web portal to all federal, state and local government web resources and services.